createdAt,value
2019-02-22T00:02:12.957Z,29.57
2019-02-22T00:04:41.099Z,31.27
2019-02-22T00:07:09.274Z,31.55
2019-02-22T00:09:37.468Z,30.80
2019-02-22T00:12:05.943Z,29.83
2019-02-22T00:14:34.127Z,29.63
2019-02-22T00:17:02.658Z,30.92
2019-02-22T00:19:31.143Z,31.77
2019-02-22T00:21:59.659Z,31.57
2019-02-22T00:24:28.214Z,31.62
2019-02-22T00:26:56.406Z,31.60
2019-02-22T00:29:44.241Z,32.50
2019-02-22T00:32:12.411Z,29.75
2019-02-22T00:34:40.607Z,31.15
2019-02-22T00:37:10.061Z,30.80
2019-02-22T00:39:38.556Z,32.35
2019-02-22T00:42:08.702Z,33.70
2019-02-22T00:44:37.141Z,32.90
2019-02-22T00:47:05.329Z,31.15
2019-02-22T00:49:33.892Z,32.10
2019-02-22T00:52:02.102Z,31.87
2019-02-22T00:54:49.653Z,32.33
2019-02-22T00:57:18.110Z,32.40
2019-02-22T00:59:46.538Z,33.23
2019-02-22T01:02:15.490Z,34.90
2019-02-22T01:04:43.652Z,32.63
2019-02-22T01:07:11.838Z,33.42
2019-02-22T01:09:39.995Z,33.13
2019-02-22T01:12:08.183Z,33.88
2019-02-22T01:14:36.343Z,33.98
2019-02-22T01:17:04.950Z,32.13
2019-02-22T01:19:34.170Z,33.48
2019-02-22T01:22:02.297Z,33.23
2019-02-22T01:24:30.847Z,33.90
2019-02-22T01:26:59.655Z,33.40
2019-02-22T01:29:27.862Z,34.15
2019-02-22T01:31:56.033Z,33.28
2019-02-22T01:34:24.462Z,36.23
2019-02-22T01:36:53.030Z,34.20
2019-02-22T01:39:21.570Z,34.92
2019-02-22T01:41:50.987Z,36.13
2019-02-22T01:44:22.961Z,34.50
2019-02-22T01:46:51.581Z,36.35
2019-02-22T01:49:20.349Z,37.45
2019-02-22T01:51:49.521Z,36.55
2019-02-22T01:54:22.241Z,36.85
2019-02-22T01:56:50.471Z,37.50
2019-02-22T01:59:18.622Z,37.23
2019-02-22T02:01:46.806Z,37.70
2019-02-22T02:04:15.293Z,36.50
2019-02-22T02:06:43.501Z,36.97
2019-02-22T02:09:11.630Z,36.90
2019-02-22T02:11:40.177Z,38.20
2019-02-22T02:14:08.683Z,36.55
2019-02-22T02:16:36.856Z,37.08
2019-02-22T02:19:05.035Z,37.33
2019-02-22T02:21:33.212Z,37.83
2019-02-22T02:24:01.762Z,38.23
2019-02-22T02:26:30.201Z,38.17
2019-02-22T02:28:58.355Z,37.23
2019-02-22T02:31:26.523Z,37.17
2019-02-22T02:33:54.940Z,38.08
2019-02-22T02:36:23.985Z,39.63
2019-02-22T02:38:52.168Z,39.25
2019-02-22T02:41:20.331Z,39.30
2019-02-22T02:43:48.533Z,39.77
2019-02-22T02:46:16.676Z,40.33
2019-02-22T02:48:46.174Z,43.20
2019-02-22T02:51:14.366Z,41.65
2019-02-22T02:53:42.545Z,42.08
2019-02-22T02:56:10.892Z,44.45
2019-02-22T02:58:39.110Z,43.65
2019-02-22T03:01:07.253Z,43.65
2019-02-22T03:03:38.578Z,42.40
2019-02-22T03:06:23.238Z,43.02
2019-02-22T03:08:51.503Z,41.42
2019-02-22T03:11:21.427Z,42.35
2019-02-22T03:13:49.601Z,43.55
2019-02-22T03:16:18.472Z,43.73
2019-02-22T03:18:46.699Z,41.65
2019-02-22T03:21:15.899Z,42.85
2019-02-22T03:23:45.099Z,43.85
2019-02-22T03:26:13.270Z,42.85
2019-02-22T03:28:41.450Z,44.23
2019-02-22T03:31:09.637Z,41.68
2019-02-22T03:33:38.405Z,41.95
2019-02-22T03:36:07.605Z,42.83
2019-02-22T03:38:36.163Z,43.50
2019-02-22T03:41:05.050Z,42.60
2019-02-22T03:43:33.886Z,43.30
2019-02-22T03:46:03.075Z,42.10
2019-02-22T03:48:32.264Z,41.18
2019-02-22T03:51:01.445Z,42.20
2019-02-22T03:53:33.018Z,42.60
2019-02-22T03:56:01.258Z,40.92
2019-02-22T03:58:29.442Z,42.15
2019-02-22T04:00:57.628Z,41.02
2019-02-22T04:03:26.407Z,41.53
2019-02-22T04:05:54.977Z,41.13
2019-02-22T04:08:23.454Z,42.80
2019-02-22T04:10:51.937Z,40.95
2019-02-22T04:13:20.129Z,39.92
2019-02-22T04:15:48.308Z,42.15
2019-02-22T04:18:16.902Z,40.07
2019-02-22T04:20:46.087Z,40.70
2019-02-22T04:23:14.543Z,42.63
2019-02-22T04:25:42.730Z,41.42
2019-02-22T04:28:11.141Z,41.02
2019-02-22T04:30:39.285Z,39.05
2019-02-22T04:33:08.487Z,41.68
2019-02-22T04:35:38.939Z,39.45
2019-02-22T04:38:07.081Z,39.43
2019-02-22T04:40:35.271Z,38.48
2019-02-22T04:43:03.446Z,39.07
2019-02-22T04:45:32.711Z,40.00
2019-02-22T04:48:00.930Z,39.38
2019-02-22T04:50:29.059Z,38.35
2019-02-22T04:52:57.259Z,39.13
2019-02-22T04:55:25.716Z,40.15
2019-02-22T04:57:54.193Z,42.00
2019-02-22T05:00:22.386Z,41.13
2019-02-22T05:02:50.553Z,41.98
2019-02-22T05:05:18.734Z,40.58
2019-02-22T05:07:46.899Z,42.35
2019-02-22T05:10:15.398Z,39.55
2019-02-22T05:12:43.572Z,41.20
2019-02-22T05:15:13.095Z,40.35
2019-02-22T05:17:40.330Z,40.92
2019-02-22T05:20:08.487Z,42.55
2019-02-22T05:22:37.683Z,41.68
2019-02-22T05:25:06.550Z,40.25
2019-02-22T05:27:34.752Z,41.10
2019-02-22T05:30:03.241Z,39.78
2019-02-22T05:32:31.425Z,41.63
2019-02-22T05:34:59.949Z,41.63
2019-02-22T05:37:28.166Z,40.83
2019-02-22T05:39:56.337Z,42.62
2019-02-22T05:42:24.541Z,40.12
2019-02-22T05:44:52.688Z,40.35
2019-02-22T05:47:20.858Z,40.50
2019-02-22T05:49:49.036Z,38.98
2019-02-22T05:52:17.228Z,39.73
2019-02-22T05:54:45.383Z,40.15
2019-02-22T05:57:14.464Z,40.03
2019-02-22T05:59:42.454Z,38.35
2019-02-22T06:02:10.942Z,38.80
2019-02-22T06:04:39.093Z,38.83
2019-02-22T06:07:07.273Z,35.92
2019-02-22T06:09:35.842Z,37.28
2019-02-22T06:12:04.324Z,36.50
2019-02-22T06:14:32.516Z,36.65
2019-02-22T06:17:00.684Z,35.23
2019-02-22T06:19:28.949Z,34.88
2019-02-22T06:21:57.158Z,34.13
2019-02-22T06:24:25.306Z,33.00
2019-02-22T06:26:53.468Z,32.90
2019-02-22T06:29:21.666Z,33.25
2019-02-22T06:31:49.812Z,31.95
2019-02-22T06:34:18.016Z,31.75
2019-02-22T06:36:46.162Z,31.62
2019-02-22T06:39:14.348Z,30.48
2019-02-22T06:41:42.776Z,29.74
2019-02-22T06:44:12.056Z,31.70
2019-02-22T06:46:39.567Z,30.40
2019-02-22T06:49:07.753Z,32.30
2019-02-22T06:51:35.918Z,30.88
2019-02-22T06:54:04.105Z,30.85
2019-02-22T06:56:32.260Z,31.07
2019-02-22T06:59:00.870Z,31.02
2019-02-22T07:01:29.963Z,32.55
2019-02-22T07:03:58.200Z,31.75
2019-02-22T07:06:26.372Z,33.15
2019-02-22T07:08:54.476Z,31.70
2019-02-22T07:11:28.525Z,34.10
2019-02-22T07:13:56.760Z,32.38
2019-02-22T07:16:24.938Z,33.23
2019-02-22T07:18:53.107Z,31.73
2019-02-22T07:21:21.278Z,30.72
2019-02-22T07:23:49.457Z,31.87
2019-02-22T07:26:20.126Z,32.53
2019-02-22T07:28:48.826Z,31.10
2019-02-22T07:31:17.056Z,32.03
2019-02-22T07:33:45.219Z,32.63
2019-02-22T07:36:13.787Z,32.53
2019-02-22T07:38:41.965Z,31.75
2019-02-22T07:41:10.170Z,31.17
2019-02-22T07:43:38.336Z,31.68
2019-02-22T07:46:06.502Z,30.52
2019-02-22T07:48:34.664Z,31.10
2019-02-22T07:51:02.830Z,29.52
2019-02-22T07:53:31.468Z,29.10
2019-02-22T07:55:59.702Z,27.75
2019-02-22T07:58:27.894Z,28.25
2019-02-22T08:00:59.723Z,27.65
2019-02-22T08:03:27.914Z,28.60
2019-02-22T08:05:56.086Z,26.68
2019-02-22T08:08:24.306Z,27.30
2019-02-22T08:10:52.742Z,27.02
2019-02-22T08:13:20.905Z,26.85
2019-02-22T08:15:49.094Z,26.15
2019-02-22T08:18:17.640Z,25.37
2019-02-22T08:20:46.104Z,25.27
2019-02-22T08:23:14.801Z,25.08
2019-02-22T08:25:42.999Z,25.53
2019-02-22T08:28:11.195Z,24.27
2019-02-22T08:30:39.341Z,85.77
2019-02-22T08:33:07.509Z,23.05
2019-02-22T08:35:35.709Z,23.12
2019-02-22T08:38:03.877Z,23.47
2019-02-22T08:40:32.149Z,24.15
2019-02-22T08:43:03.825Z,22.50
2019-02-22T08:45:32.288Z,21.27
2019-02-22T08:48:00.828Z,21.95
2019-02-22T08:50:30.054Z,21.23
2019-02-22T08:53:03.054Z,21.73
2019-02-22T08:55:31.212Z,20.37
2019-02-22T08:57:59.409Z,18.37
2019-02-22T09:00:27.592Z,17.80
2019-02-22T09:02:56.037Z,18.80
2019-02-22T09:05:24.221Z,17.17
2019-02-22T09:07:52.428Z,17.15
2019-02-22T09:10:20.587Z,16.90
2019-02-22T09:12:48.718Z,15.88
2019-02-22T09:15:16.903Z,15.60
2019-02-22T09:17:45.111Z,15.00
2019-02-22T09:20:13.265Z,15.83
2019-02-22T09:22:42.457Z,14.95
2019-02-22T09:25:11.652Z,14.60
2019-02-22T09:27:39.839Z,12.95
2019-02-22T09:30:09.024Z,12.58
2019-02-22T09:32:37.201Z,12.68
2019-02-22T09:35:06.493Z,11.30
2019-02-22T09:37:54.089Z,9.93
2019-02-22T09:40:22.301Z,9.50
2019-02-22T09:42:50.552Z,9.35
2019-02-22T09:45:19.115Z,9.20
2019-02-22T09:47:48.105Z,8.90
2019-02-22T09:50:17.108Z,8.50
2019-02-22T09:52:45.207Z,9.20
2019-02-22T09:55:13.416Z,8.05
2019-02-22T09:57:41.555Z,8.70
2019-02-22T10:00:11.269Z,8.53
2019-02-22T10:02:40.261Z,9.20
2019-02-22T10:05:09.155Z,9.68
2019-02-22T10:07:37.330Z,8.63
2019-02-22T10:10:06.437Z,9.03
2019-02-22T10:12:35.190Z,8.50
2019-02-22T10:15:04.162Z,8.50
2019-02-22T10:17:34.369Z,9.13
2019-02-22T10:20:02.512Z,8.53
2019-02-22T10:22:30.666Z,7.60
2019-02-22T10:24:58.844Z,7.42
2019-02-22T10:27:26.997Z,7.75
2019-02-22T10:29:55.195Z,6.90
2019-02-22T10:32:23.362Z,7.90
2019-02-22T10:34:51.593Z,7.58
2019-02-22T10:37:19.816Z,6.87
2019-02-22T10:39:47.981Z,7.40
2019-02-22T10:42:17.385Z,7.17
2019-02-22T10:44:45.589Z,6.75
2019-02-22T10:47:13.737Z,7.80
2019-02-22T10:49:42.503Z,7.23
2019-02-22T10:52:10.712Z,6.87
2019-02-22T10:54:38.863Z,6.37
2019-02-22T10:57:08.062Z,6.33
2019-02-22T10:59:40.936Z,5.80
2019-02-22T11:02:09.132Z,6.78
2019-02-22T11:04:37.347Z,6.50
2019-02-22T11:07:05.863Z,7.55
2019-02-22T11:09:34.048Z,7.37
2019-02-22T11:12:02.293Z,7.10
2019-02-22T11:14:34.889Z,7.47
2019-02-22T11:17:03.493Z,7.17
2019-02-22T11:19:31.698Z,6.03
2019-02-22T11:21:59.865Z,6.58
2019-02-22T11:24:28.062Z,6.20
2019-02-22T11:26:56.603Z,6.65
2019-02-22T11:29:24.932Z,5.90
2019-02-22T11:31:54.081Z,6.00
2019-02-22T11:34:22.268Z,6.75
2019-02-22T11:36:50.429Z,5.95
2019-02-22T11:39:18.655Z,5.85
2019-02-22T11:41:47.117Z,6.30
2019-02-22T11:44:15.055Z,6.03
2019-02-22T11:46:43.220Z,5.65
2019-02-22T11:49:13.713Z,6.17
2019-02-22T11:51:42.988Z,5.33
2019-02-22T11:54:11.405Z,6.15
2019-02-22T11:56:40.710Z,4.78
2019-02-22T11:59:10.840Z,5.10
2019-02-22T12:01:40.037Z,5.47
2019-02-22T12:04:12.334Z,6.17
2019-02-22T12:06:42.960Z,5.60
2019-02-22T12:09:12.145Z,5.60
2019-02-22T12:11:48.564Z,4.80
2019-02-22T12:14:18.105Z,4.72
2019-02-22T12:16:46.676Z,4.15
2019-02-22T12:19:20.989Z,4.63
2019-02-22T12:21:49.574Z,4.60
2019-02-22T12:24:18.709Z,3.92
2019-02-22T12:26:48.055Z,4.35
2019-02-22T12:29:16.230Z,4.33
2019-02-22T12:31:45.028Z,4.80
2019-02-22T12:34:14.240Z,4.50
2019-02-22T12:36:42.431Z,5.20
2019-02-22T12:39:10.895Z,5.47
2019-02-22T12:41:39.794Z,5.30
2019-02-22T12:44:08.038Z,6.40
2019-02-22T12:46:36.258Z,5.15
2019-02-22T12:49:07.491Z,10.95
2019-02-22T12:51:35.979Z,29.00
2019-02-22T12:54:04.552Z,39.88
2019-02-22T12:59:02.957Z,8.05
2019-02-22T13:01:32.142Z,6.30
2019-02-22T13:04:02.354Z,5.42
2019-02-22T13:06:30.544Z,5.27
2019-02-22T13:08:58.723Z,5.80
2019-02-22T13:11:27.152Z,5.03
2019-02-22T13:13:55.375Z,5.67
2019-02-22T13:16:23.930Z,7.35
2019-02-22T13:18:52.180Z,7.83
2019-02-22T13:21:21.323Z,18.45
2019-02-22T13:23:49.893Z,5.30
2019-02-22T13:26:18.397Z,5.70
2019-02-22T13:28:46.591Z,5.37
2019-02-22T13:31:15.463Z,4.83
2019-02-22T13:33:43.615Z,4.72
2019-02-22T13:36:12.067Z,6.05
2019-02-22T13:38:41.211Z,20.90
2019-02-22T13:41:10.067Z,5.60
2019-02-22T13:43:38.280Z,3.42
2019-02-22T13:46:06.798Z,3.50
2019-02-22T13:48:35.940Z,3.08
2019-02-22T13:51:04.122Z,3.02
2019-02-22T13:53:32.980Z,3.55
2019-02-22T13:56:01.178Z,3.00
2019-02-22T13:58:30.367Z,4.37
2019-02-22T14:00:58.556Z,4.12
2019-02-22T14:03:27.393Z,4.67
2019-02-22T14:05:55.598Z,3.50
2019-02-22T14:08:24.284Z,4.75
2019-02-22T14:10:52.478Z,6.35
2019-02-22T14:13:20.799Z,4.62
2019-02-22T14:15:49.297Z,6.00
2019-02-22T14:18:17.520Z,3.95
2019-02-22T14:20:45.699Z,4.55
2019-02-22T14:23:14.555Z,5.33
2019-02-22T14:25:42.828Z,5.60
2019-02-22T14:28:12.167Z,6.80
2019-02-22T14:30:40.358Z,5.95
2019-02-22T14:33:08.600Z,4.97
2019-02-22T14:35:38.086Z,4.15
2019-02-22T14:38:07.293Z,3.80
2019-02-22T14:40:35.627Z,3.40
2019-02-22T14:43:03.856Z,2.85
2019-02-22T14:45:33.015Z,3.12
2019-02-22T14:48:01.496Z,3.77
2019-02-22T14:50:29.655Z,4.50
2019-02-22T14:52:57.867Z,4.58
2019-02-22T14:55:27.151Z,6.62
2019-02-22T14:57:55.237Z,9.28
2019-02-22T15:00:23.779Z,13.53
2019-02-22T15:02:55.070Z,5.72
2019-02-22T15:05:23.271Z,15.85
2019-02-22T15:07:51.701Z,12.90
2019-02-22T15:10:19.904Z,8.98
2019-02-22T15:12:49.103Z,4.28
2019-02-22T15:15:17.264Z,3.47
2019-02-22T15:17:56.737Z,4.00
2019-02-22T15:20:25.347Z,3.60
2019-02-22T15:22:53.555Z,3.75
2019-02-22T15:25:22.104Z,4.55
2019-02-22T15:27:52.266Z,5.20
2019-02-22T15:30:21.351Z,5.33
2019-02-22T15:32:49.922Z,6.28
2019-02-22T15:35:18.125Z,6.10
2019-02-22T15:37:48.724Z,10.60
2019-02-22T15:40:18.209Z,11.97
2019-02-22T15:42:46.442Z,9.33
2019-02-22T15:45:15.643Z,10.13
2019-02-22T15:47:43.805Z,12.40
2019-02-22T15:50:13.569Z,10.08
2019-02-22T15:52:41.777Z,10.50
2019-02-22T15:55:10.226Z,7.70
2019-02-22T15:57:38.354Z,7.47
2019-02-22T16:00:12.608Z,6.03
2019-02-22T16:02:41.270Z,4.87
2019-02-22T16:05:16.140Z,5.58
2019-02-22T16:07:45.095Z,6.00
2019-02-22T16:10:13.032Z,4.83
2019-02-22T16:12:43.877Z,5.00
2019-02-22T16:15:12.073Z,6.33
2019-02-22T16:17:40.988Z,6.33
2019-02-22T16:20:09.193Z,6.30
2019-02-22T16:22:38.594Z,5.80
2019-02-22T16:25:19.683Z,6.22
2019-02-22T16:27:39.988Z,5.85
2019-02-22T16:30:13.161Z,6.87
2019-02-22T16:32:41.763Z,6.28
2019-02-22T16:35:11.915Z,5.28
2019-02-22T16:37:42.445Z,6.53
2019-02-22T16:40:12.826Z,5.43
2019-02-22T16:42:41.120Z,4.97
2019-02-22T16:45:16.114Z,5.17
2019-02-22T16:47:43.347Z,4.53
2019-02-22T16:50:11.965Z,5.15
2019-02-22T16:52:40.142Z,5.40
2019-02-22T16:55:10.853Z,6.00
2019-02-22T16:57:41.344Z,7.53
2019-02-22T17:00:11.130Z,7.27
2019-02-22T17:02:41.380Z,5.00
2019-02-22T17:05:08.670Z,5.50
2019-02-22T17:07:36.942Z,4.95
2019-02-22T17:10:14.241Z,5.03
2019-02-22T17:12:43.381Z,5.17
2019-02-22T17:15:11.548Z,4.85
2019-02-22T17:17:39.686Z,6.67
2019-02-22T17:20:08.782Z,7.33
2019-02-22T17:22:37.965Z,8.73
2019-02-22T17:25:08.695Z,6.40
2019-02-22T17:27:37.593Z,6.20
2019-02-22T17:30:06.799Z,5.33
2019-02-22T17:32:35.356Z,4.70
2019-02-22T17:35:03.658Z,5.17
2019-02-22T17:37:31.822Z,6.85
2019-02-22T17:39:59.999Z,6.97
2019-02-22T17:42:29.568Z,5.67
2019-02-22T17:44:59.202Z,7.25
2019-02-22T17:47:27.890Z,8.35
2019-02-22T17:49:56.091Z,6.25
2019-02-22T17:52:24.241Z,8.00
2019-02-22T17:54:52.430Z,8.08
2019-02-22T17:57:20.634Z,10.10
2019-02-22T17:59:49.101Z,7.87
2019-02-22T18:02:17.633Z,6.80
2019-02-22T18:04:45.825Z,6.70
2019-02-22T18:07:14.292Z,9.38
2019-02-22T18:09:42.429Z,10.35
2019-02-22T18:12:10.654Z,18.12
2019-02-22T18:14:39.204Z,10.08
2019-02-22T18:17:08.740Z,9.93
2019-02-22T18:19:35.832Z,6.80
2019-02-22T18:22:08.073Z,8.53
2019-02-22T18:24:36.627Z,9.15
2019-02-22T18:27:05.101Z,10.70
2019-02-22T18:29:35.670Z,8.25
2019-02-22T18:32:02.099Z,9.25
2019-02-22T18:34:30.631Z,11.40
2019-02-22T18:36:58.921Z,11.18
2019-02-22T18:39:27.426Z,10.82
2019-02-22T18:41:55.605Z,10.20
2019-02-22T18:44:24.762Z,10.55
2019-02-22T18:46:52.993Z,10.48
2019-02-22T18:49:21.138Z,12.05
2019-02-22T18:51:49.325Z,8.40
2019-02-22T18:54:17.490Z,11.33
2019-02-22T18:56:45.650Z,10.85
2019-02-22T18:59:14.231Z,11.30
2019-02-22T19:01:43.478Z,11.45
2019-02-22T19:04:11.902Z,10.32
2019-02-22T19:06:40.460Z,10.72
2019-02-22T19:09:08.677Z,10.18
2019-02-22T19:11:36.853Z,10.70
2019-02-22T19:14:06.422Z,12.30
2019-02-22T19:16:34.640Z,12.55
2019-02-22T19:19:02.799Z,13.30
2019-02-22T19:21:30.993Z,13.80
2019-02-22T19:23:59.781Z,15.38
2019-02-22T19:26:27.953Z,14.43
2019-02-22T19:28:56.110Z,15.05
2019-02-22T19:31:25.037Z,13.05
2019-02-22T19:33:53.564Z,10.95
2019-02-22T19:36:21.758Z,11.55
2019-02-22T19:38:49.942Z,12.40
2019-02-22T19:41:18.430Z,14.53
2019-02-22T19:43:47.088Z,13.15
2019-02-22T19:46:15.063Z,12.07
2019-02-22T19:48:44.269Z,12.65
2019-02-22T19:51:12.417Z,14.65
2019-02-22T19:53:40.684Z,13.98
2019-02-22T19:56:08.766Z,13.45
2019-02-22T19:58:36.973Z,15.00
2019-02-22T20:01:05.419Z,12.60
2019-02-22T20:03:33.628Z,12.37
2019-02-22T20:06:01.774Z,10.30
2019-02-22T20:08:29.964Z,8.60
2019-02-22T20:10:59.430Z,8.73
2019-02-22T20:13:27.970Z,8.38
2019-02-22T20:15:56.109Z,8.13
2019-02-22T20:18:24.622Z,8.08
2019-02-22T20:20:53.139Z,8.13
2019-02-22T20:23:21.363Z,8.35
2019-02-22T20:25:49.536Z,8.20
2019-02-22T20:28:18.074Z,9.50
2019-02-22T20:30:46.290Z,9.83
2019-02-22T20:33:14.447Z,9.63
2019-02-22T20:35:42.917Z,10.72
2019-02-22T20:38:11.090Z,9.90
2019-02-22T20:40:39.572Z,15.58
2019-02-22T20:43:09.727Z,22.93
2019-02-22T20:45:37.894Z,26.90
2019-02-22T20:48:06.062Z,19.82
2019-02-22T20:50:34.688Z,16.82
2019-02-22T20:53:02.885Z,11.70
2019-02-22T20:55:31.434Z,10.10
2019-02-22T20:57:59.587Z,10.15
2019-02-22T21:00:27.753Z,10.55
2019-02-22T21:02:57.969Z,10.53
2019-02-22T21:05:26.250Z,10.30
2019-02-22T21:07:54.423Z,10.68
2019-02-22T21:10:22.646Z,10.95
2019-02-22T21:12:50.758Z,10.50
2019-02-22T21:15:20.268Z,10.80
2019-02-22T21:17:57.431Z,10.63
2019-02-22T21:20:25.732Z,10.90
2019-02-22T21:22:53.890Z,9.60
2019-02-22T21:25:23.096Z,10.08
2019-02-22T21:27:51.272Z,10.10
2019-02-22T21:30:19.458Z,10.25
2019-02-22T21:32:48.352Z,9.95
2019-02-22T21:35:16.397Z,10.00
2019-02-22T21:37:44.572Z,9.80
2019-02-22T21:40:13.039Z,9.15
2019-02-22T21:42:41.227Z,9.80
2019-02-22T21:45:09.912Z,10.78
2019-02-22T21:47:39.122Z,10.10
2019-02-22T21:50:09.330Z,12.03
2019-02-22T21:52:37.514Z,10.20
2019-02-22T21:55:06.737Z,10.95
2019-02-22T21:57:35.509Z,11.68
2019-02-22T22:00:03.836Z,11.30
2019-02-22T22:02:32.054Z,10.70
2019-02-22T22:05:03.363Z,10.70
2019-02-22T22:07:33.754Z,11.83
2019-02-22T22:10:02.187Z,11.67
2019-02-22T22:12:30.828Z,11.20
2019-02-22T22:14:59.171Z,11.50
2019-02-22T22:17:27.839Z,13.55
2019-02-22T22:19:56.031Z,13.40
2019-02-22T22:22:24.481Z,14.38
2019-02-22T22:24:52.678Z,15.55
2019-02-22T22:27:24.468Z,13.18
2019-02-22T22:29:52.844Z,12.78
2019-02-22T22:32:21.279Z,12.70
2019-02-22T22:34:49.479Z,11.85
2019-02-22T22:37:20.891Z,11.03
2019-02-22T22:39:49.081Z,10.43
2019-02-22T22:42:17.293Z,12.13
2019-02-22T22:44:45.498Z,12.20
2019-02-22T22:47:13.699Z,11.43
2019-02-22T22:49:41.879Z,10.90
2019-02-22T22:52:10.061Z,11.08
2019-02-22T22:54:38.228Z,10.85
2019-02-22T22:57:06.877Z,10.55
2019-02-22T22:59:35.177Z,10.58
2019-02-22T23:02:03.378Z,9.88
2019-02-22T23:04:33.646Z,10.45
2019-02-22T23:07:05.584Z,10.95
2019-02-22T23:09:33.764Z,11.03
2019-02-22T23:12:02.416Z,11.45
2019-02-22T23:14:30.601Z,11.25
2019-02-22T23:16:59.532Z,10.63
2019-02-22T23:19:31.438Z,13.30
2019-02-22T23:21:59.635Z,10.70
2019-02-22T23:24:31.429Z,11.70
2019-02-22T23:27:00.230Z,10.55
2019-02-22T23:29:28.816Z,12.88
2019-02-22T23:32:15.913Z,12.37
2019-02-22T23:34:44.137Z,11.68
2019-02-22T23:37:16.014Z,11.88
2019-02-22T23:39:44.247Z,12.55
2019-02-22T23:42:15.396Z,12.25
2019-02-22T23:44:43.671Z,12.30
2019-02-22T23:47:11.860Z,11.57
2019-02-22T23:52:08.466Z,13.10
2019-02-22T23:54:37.970Z,13.25
2019-02-22T23:57:06.464Z,12.05
2019-02-22T23:59:36.103Z,12.23
